Time;durP1;ratioP1;P1;durP2;ratioP2;P2;SDS_P1;SDS_P2;PMS_P1;PMS_P2;Temp;Humidity;BMP_temperature;BMP_pressure;BME280_temperature;BME280_humidity;BME280_pressure;Samples;Min_cycle;Max_cycle;Signal;HPM_P1;HPM_P2
2023/03/19 00:01:58;;;;;;;2.33;1.20;;;;;;;;;;5068914;28;20357;-79
2023/03/19 00:04:25;;;;;;;2.13;1.10;;;;;;;;;;5062198;28;20094;-78
2023/03/19 00:06:50;;;;;;;1.90;1.02;;;;;;;;;;5059287;28;20028;-79
2023/03/19 00:09:16;;;;;;;2.13;1.00;;;;;;;;;;5063404;28;20039;-78
2023/03/19 00:11:41;;;;;;;2.83;0.95;;;;;;;;;;5068678;28;20056;-79
2023/03/19 00:14:07;;;;;;;1.95;1.10;;;;;;;;;;5064411;28;20047;-78
2023/03/19 00:16:33;;;;;;;2.75;1.17;;;;;;;;;;5051131;28;20171;-78
2023/03/19 00:18:58;;;;;;;1.20;0.85;;;;;;;;;;5050123;28;20380;-78
2023/03/19 00:21:23;;;;;;;1.67;0.93;;;;;;;;;;5050522;28;20040;-78
2023/03/19 00:23:49;;;;;;;1.50;0.98;;;;;;;;;;5064868;28;20476;-78
2023/03/19 00:26:15;;;;;;;1.55;0.90;;;;;;;;;;5053001;28;20033;-78
2023/03/19 00:28:40;;;;;;;2.75;1.30;;;;;;;;;;5071465;28;20095;-78
2023/03/19 00:31:11;;;;;;;3.08;1.08;;;;;;;;;;5053670;28;20024;-78
2023/03/19 00:33:37;;;;;;;1.50;0.95;;;;;;;;;;5066457;28;20028;-78
2023/03/19 00:36:03;;;;;;;3.35;1.00;;;;;;;;;;5051692;28;20029;-79
2023/03/19 00:38:28;;;;;;;3.28;1.23;;;;;;;;;;5051759;28;20051;-78
2023/03/19 00:40:54;;;;;;;2.53;1.10;;;;;;;;;;5055040;28;20110;-78
2023/03/19 00:43:19;;;;;;;2.17;1.10;;;;;;;;;;5063919;28;20021;-78
2023/03/19 00:45:45;;;;;;;1.40;0.98;;;;;;;;;;5046224;28;20456;-78
2023/03/19 00:48:11;;;;;;;3.03;1.17;;;;;;;;;;5052634;28;20028;-80
2023/03/19 00:50:36;;;;;;;1.38;0.90;;;;;;;;;;5054299;28;20024;-79
2023/03/19 00:53:02;;;;;;;1.70;1.08;;;;;;;;;;5069579;28;20108;-80
2023/03/19 00:55:27;;;;;;;2.50;0.90;;;;;;;;;;5046800;28;20083;-80
2023/03/19 00:57:52;;;;;;;3.03;1.17;;;;;;;;;;5071349;28;20028;-80
2023/03/19 01:00:18;;;;;;;1.75;1.20;;;;;;;;;;5069481;28;20028;-80
2023/03/19 01:02:44;;;;;;;2.00;1.20;;;;;;;;;;5073267;28;20488;-80
2023/03/19 01:05:10;;;;;;;2.50;1.25;;;;;;;;;;5069900;28;20043;-79
2023/03/19 01:07:36;;;;;;;1.63;1.08;;;;;;;;;;5069546;28;20085;-80
2023/03/19 01:10:01;;;;;;;2.53;1.30;;;;;;;;;;5054662;28;20024;-80
2023/03/19 01:12:27;;;;;;;2.85;1.20;;;;;;;;;;5074682;28;20077;-80
2023/03/19 01:14:52;;;;;;;2.90;1.30;;;;;;;;;;5067288;28;20494;-81
2023/03/19 01:17:17;;;;;;;2.45;1.30;;;;;;;;;;5050002;28;20497;-80
2023/03/19 01:19:43;;;;;;;2.88;1.27;;;;;;;;;;5070505;28;20042;-80
2023/03/19 01:22:08;;;;;;;2.30;1.23;;;;;;;;;;5070560;28;20039;-80
2023/03/19 01:24:34;;;;;;;2.47;1.40;;;;;;;;;;5067140;28;20016;-80
2023/03/19 01:26:59;;;;;;;3.00;1.52;;;;;;;;;;5068171;28;20016;-79
2023/03/19 01:29:25;;;;;;;2.55;1.38;;;;;;;;;;5059880;28;20033;-80
2023/03/19 01:31:50;;;;;;;2.60;1.42;;;;;;;;;;5061483;28;20449;-80
2023/03/19 01:34:16;;;;;;;4.13;1.60;;;;;;;;;;5071495;28;20028;-80
2023/03/19 01:36:41;;;;;;;3.65;1.40;;;;;;;;;;5047329;28;20024;-80
2023/03/19 01:39:07;;;;;;;3.00;1.98;;;;;;;;;;5062830;28;20116;-80
2023/03/19 01:41:32;;;;;;;2.63;1.45;;;;;;;;;;5064115;28;20095;-80
2023/03/19 01:43:58;;;;;;;3.15;1.70;;;;;;;;;;5069453;28;20033;-80
2023/03/19 01:46:30;;;;;;;2.60;1.48;;;;;;;;;;5047501;28;20074;-81
2023/03/19 01:49:05;;;;;;;2.85;1.48;;;;;;;;;;5071201;28;20393;-80
2023/03/19 01:51:36;;;;;;;2.25;1.48;;;;;;;;;;5051554;28;20060;-80
2023/03/19 01:54:05;;;;;;;2.00;1.30;;;;;;;;;;5073117;28;20558;-80
2023/03/19 01:56:33;;;;;;;2.88;1.70;;;;;;;;;;5062002;28;20120;-80
2023/03/19 01:59:03;;;;;;;3.13;1.65;;;;;;;;;;5071422;28;20068;-80
2023/03/19 02:01:33;;;;;;;2.50;1.42;;;;;;;;;;5072081;28;20499;-80
2023/03/19 02:03:59;;;;;;;3.08;1.60;;;;;;;;;;5068085;28;20119;-81
2023/03/19 02:06:25;;;;;;;3.45;1.60;;;;;;;;;;5050315;28;20059;-81
2023/03/19 02:08:51;;;;;;;2.53;1.70;;;;;;;;;;5048037;28;20079;-80
2023/03/19 02:11:18;;;;;;;3.05;1.70;;;;;;;;;;5048915;28;20032;-80
2023/03/19 02:13:44;;;;;;;2.45;1.38;;;;;;;;;;5052203;28;20070;-80
2023/03/19 02:16:10;;;;;;;3.20;1.52;;;;;;;;;;5070733;28;20036;-81
2023/03/19 02:18:35;;;;;;;3.38;1.60;;;;;;;;;;5058180;28;20072;-80
2023/03/19 02:21:04;;;;;;;3.38;1.70;;;;;;;;;;5052059;28;20024;-80
2023/03/19 02:23:48;;;;;;;2.80;1.42;;;;;;;;;;5063796;28;20025;-80
2023/03/19 02:26:19;;;;;;;3.42;1.80;;;;;;;;;;5062091;28;20473;-80
2023/03/19 02:28:47;;;;;;;4.53;2.05;;;;;;;;;;5064379;28;20026;-80
2023/03/19 02:31:13;;;;;;;3.85;1.90;;;;;;;;;;5050217;28;20075;-80
2023/03/19 02:33:39;;;;;;;3.58;1.98;;;;;;;;;;5055922;28;20028;-80
2023/03/19 02:36:09;;;;;;;3.67;2.00;;;;;;;;;;5050549;28;20128;-80
2023/03/19 02:38:37;;;;;;;4.55;2.25;;;;;;;;;;5065624;28;20036;-80
2023/03/19 02:41:06;;;;;;;3.15;2.10;;;;;;;;;;5049270;28;20059;-80
2023/03/19 02:43:34;;;;;;;3.03;1.90;;;;;;;;;;5060588;28;20542;-80
2023/03/19 02:46:01;;;;;;;4.32;2.13;;;;;;;;;;5047123;28;20024;-80
2023/03/19 02:48:27;;;;;;;4.78;2.20;;;;;;;;;;5062934;28;20477;-80
2023/03/19 02:50:52;;;;;;;3.67;1.90;;;;;;;;;;5042576;28;20129;-80
2023/03/19 02:53:18;;;;;;;3.80;2.30;;;;;;;;;;5061498;28;20045;-80
2023/03/19 02:55:43;;;;;;;4.93;2.25;;;;;;;;;;5049470;28;20032;-81
2023/03/19 02:58:08;;;;;;;3.80;2.35;;;;;;;;;;5063423;28;20113;-80
2023/03/19 03:00:34;;;;;;;4.43;2.40;;;;;;;;;;5065797;28;20027;-80
2023/03/19 03:03:00;;;;;;;4.50;2.40;;;;;;;;;;5065047;28;20028;-80
2023/03/19 03:05:26;;;;;;;4.22;2.50;;;;;;;;;;5047741;28;20574;-81
2023/03/19 03:07:51;;;;;;;3.45;2.15;;;;;;;;;;5050764;28;20025;-80
2023/03/19 03:10:17;;;;;;;4.47;2.70;;;;;;;;;;5048668;28;21693;-80
2023/03/19 03:12:43;;;;;;;4.60;2.42;;;;;;;;;;5063161;28;20424;-80
2023/03/19 03:15:08;;;;;;;3.95;2.35;;;;;;;;;;5064489;28;20056;-80
2023/03/19 03:17:38;;;;;;;4.40;2.70;;;;;;;;;;5046901;28;21609;-80
2023/03/19 03:20:05;;;;;;;5.53;2.85;;;;;;;;;;5063570;28;20032;-80
2023/03/19 03:22:31;;;;;;;6.30;2.83;;;;;;;;;;5059989;28;20045;-81
2023/03/19 03:24:57;;;;;;;4.28;2.65;;;;;;;;;;5065631;28;20346;-81
2023/03/19 03:27:22;;;;;;;4.95;2.83;;;;;;;;;;5047641;28;20046;-80
2023/03/19 03:29:48;;;;;;;5.50;3.40;;;;;;;;;;5065020;28;20020;-81
2023/03/19 03:32:13;;;;;;;4.75;2.97;;;;;;;;;;5061317;28;20082;-80
2023/03/19 03:34:39;;;;;;;5.10;3.00;;;;;;;;;;5063060;28;20029;-80
2023/03/19 03:37:05;;;;;;;4.90;3.20;;;;;;;;;;5046424;28;20490;-80
2023/03/19 03:39:31;;;;;;;5.20;3.15;;;;;;;;;;5046939;28;20029;-81
2023/03/19 03:41:56;;;;;;;5.80;3.40;;;;;;;;;;5044752;28;20056;-80
2023/03/19 03:44:21;;;;;;;6.60;3.53;;;;;;;;;;5048952;28;20031;-80
2023/03/19 03:46:47;;;;;;;5.15;3.40;;;;;;;;;;5064398;28;20155;-80
2023/03/19 03:49:12;;;;;;;6.28;3.80;;;;;;;;;;5048848;28;20020;-81
2023/03/19 03:51:37;;;;;;;6.90;3.83;;;;;;;;;;5045316;28;20060;-80
2023/03/19 03:54:03;;;;;;;6.28;3.90;;;;;;;;;;5028555;28;20025;-80
2023/03/19 03:56:28;;;;;;;6.85;4.13;;;;;;;;;;5046192;28;20546;-81
2023/03/19 03:58:54;;;;;;;6.45;3.97;;;;;;;;;;5063287;28;20028;-80
2023/03/19 04:01:20;;;;;;;6.22;3.88;;;;;;;;;;5032875;28;20484;-80
2023/03/19 04:03:45;;;;;;;5.40;4.00;;;;;;;;;;5048163;28;20021;-80
2023/03/19 04:06:17;;;;;;;6.90;4.03;;;;;;;;;;5071837;28;20058;-80
2023/03/19 04:08:42;;;;;;;6.40;3.83;;;;;;;;;;5051218;28;20027;-80
2023/03/19 04:11:08;;;;;;;6.38;4.05;;;;;;;;;;5068321;28;20107;-80
2023/03/19 04:13:35;;;;;;;7.93;4.25;;;;;;;;;;5063090;28;20032;-80
2023/03/19 04:16:06;;;;;;;6.85;4.75;;;;;;;;;;5065647;28;20139;-80
2023/03/19 04:18:32;;;;;;;6.20;4.70;;;;;;;;;;5068429;28;20476;-80
2023/03/19 04:20:57;;;;;;;6.45;4.78;;;;;;;;;;5073142;28;20027;-80
2023/03/19 04:23:23;;;;;;;8.32;5.15;;;;;;;;;;5053070;28;20024;-80
2023/03/19 04:25:49;;;;;;;9.20;6.43;;;;;;;;;;5067938;28;20542;-80
2023/03/19 04:28:15;;;;;;;8.23;5.47;;;;;;;;;;5048984;28;20020;-80
2023/03/19 04:30:42;;;;;;;7.43;5.38;;;;;;;;;;5071248;28;20034;-80
2023/03/19 04:33:08;;;;;;;10.10;5.50;;;;;;;;;;5053955;28;20056;-80
2023/03/19 04:35:33;;;;;;;7.35;5.20;;;;;;;;;;5050285;28;20024;-80
2023/03/19 04:37:59;;;;;;;9.18;6.38;;;;;;;;;;5067495;28;20049;-81
2023/03/19 04:40:24;;;;;;;8.55;6.10;;;;;;;;;;5068994;28;20024;-80
2023/03/19 04:42:50;;;;;;;9.63;5.85;;;;;;;;;;5074970;28;20182;-80
2023/03/19 04:45:15;;;;;;;10.43;6.13;;;;;;;;;;5060817;28;20442;-80
2023/03/19 04:47:41;;;;;;;8.48;5.88;;;;;;;;;;5070218;28;20028;-81
2023/03/19 04:50:08;;;;;;;9.05;5.80;;;;;;;;;;5062500;28;20025;-80
2023/03/19 04:52:36;;;;;;;8.50;6.05;;;;;;;;;;5068547;28;20036;-81
2023/03/19 04:55:01;;;;;;;9.63;6.28;;;;;;;;;;5053641;28;20162;-80
2023/03/19 04:57:27;;;;;;;9.45;6.30;;;;;;;;;;5066936;28;20115;-80
2023/03/19 04:59:52;;;;;;;9.98;6.40;;;;;;;;;;5064741;28;20039;-81
2023/03/19 05:02:18;;;;;;;10.55;6.82;;;;;;;;;;5051998;28;20526;-80
2023/03/19 05:04:44;;;;;;;8.93;6.00;;;;;;;;;;5068705;28;20027;-80
2023/03/19 05:07:10;;;;;;;10.45;6.50;;;;;;;;;;5053223;28;20029;-80
2023/03/19 05:09:35;;;;;;;9.18;6.13;;;;;;;;;;5064805;28;20050;-80
2023/03/19 05:12:01;;;;;;;10.15;6.22;;;;;;;;;;5052563;28;20084;-80
2023/03/19 05:14:26;;;;;;;10.25;7.22;;;;;;;;;;5069357;28;20088;-80
2023/03/19 05:16:51;;;;;;;11.90;7.55;;;;;;;;;;5066840;28;20024;-80
2023/03/19 05:19:17;;;;;;;11.18;6.82;;;;;;;;;;5050312;28;20048;-80
2023/03/19 05:21:42;;;;;;;10.63;6.88;;;;;;;;;;5067250;28;20031;-81
2023/03/19 05:24:08;;;;;;;11.00;6.93;;;;;;;;;;5053671;28;20037;-80
2023/03/19 05:26:33;;;;;;;9.38;6.60;;;;;;;;;;5068649;28;20028;-80
2023/03/19 05:28:58;;;;;;;9.38;6.28;;;;;;;;;;5071887;28;20024;-80
2023/03/19 05:31:24;;;;;;;9.30;6.15;;;;;;;;;;5037363;28;20124;-81
2023/03/19 05:33:49;;;;;;;9.43;6.05;;;;;;;;;;5067917;28;20028;-80
2023/03/19 05:36:15;;;;;;;7.70;5.57;;;;;;;;;;5046558;28;20029;-80
2023/03/19 05:38:41;;;;;;;8.07;5.72;;;;;;;;;;5049100;28;20538;-81
2023/03/19 05:41:07;;;;;;;8.57;5.68;;;;;;;;;;5047248;28;20025;-80
2023/03/19 05:43:32;;;;;;;8.00;5.70;;;;;;;;;;5064948;28;20020;-81
2023/03/19 05:45:58;;;;;;;7.85;5.20;;;;;;;;;;5049209;28;20028;-80
2023/03/19 05:48:24;;;;;;;7.82;5.28;;;;;;;;;;5048231;28;20025;-80
2023/03/19 05:50:51;;;;;;;7.82;5.10;;;;;;;;;;5067651;28;20024;-80
2023/03/19 05:53:17;;;;;;;7.22;4.95;;;;;;;;;;5061201;28;20025;-80
2023/03/19 05:55:43;;;;;;;8.30;5.53;;;;;;;;;;5072016;28;20020;-80
2023/03/19 05:58:08;;;;;;;7.90;5.18;;;;;;;;;;5070964;28;20052;-80
2023/03/19 06:00:34;;;;;;;7.25;5.25;;;;;;;;;;5050117;28;20039;-80
2023/03/19 06:03:00;;;;;;;8.63;5.10;;;;;;;;;;5056843;28;20024;-80
2023/03/19 06:05:26;;;;;;;6.88;4.78;;;;;;;;;;5068938;28;20035;-80
2023/03/19 06:07:51;;;;;;;6.80;4.72;;;;;;;;;;5069863;28;20023;-80
2023/03/19 06:10:17;;;;;;;6.95;4.90;;;;;;;;;;5063669;28;20032;-80
2023/03/19 06:12:43;;;;;;;6.40;4.85;;;;;;;;;;5051680;28;20077;-80
2023/03/19 06:15:08;;;;;;;7.90;4.80;;;;;;;;;;5048005;28;20081;-80
2023/03/19 06:17:34;;;;;;;6.68;4.80;;;;;;;;;;5045008;28;20024;-81
2023/03/19 06:20:00;;;;;;;7.47;4.85;;;;;;;;;;5066566;28;20028;-80
2023/03/19 06:22:26;;;;;;;7.13;4.70;;;;;;;;;;5051548;28;20036;-80
2023/03/19 06:24:51;;;;;;;6.53;4.45;;;;;;;;;;5065060;28;20397;-80
2023/03/19 06:27:17;;;;;;;6.72;4.82;;;;;;;;;;5066554;28;20383;-80
2023/03/19 06:29:42;;;;;;;6.47;4.57;;;;;;;;;;5068805;28;20048;-80
2023/03/19 06:32:08;;;;;;;7.82;4.70;;;;;;;;;;5071402;28;20419;-80
2023/03/19 06:34:34;;;;;;;7.03;4.65;;;;;;;;;;5049645;28;20048;-80
2023/03/19 06:36:59;;;;;;;7.65;4.72;;;;;;;;;;5067221;28;20078;-80
2023/03/19 06:39:25;;;;;;;7.10;4.32;;;;;;;;;;5066530;28;20036;-80
2023/03/19 06:41:50;;;;;;;6.78;4.32;;;;;;;;;;5060006;28;20362;-80
2023/03/19 06:44:16;;;;;;;6.85;4.45;;;;;;;;;;5050974;28;20031;-80
2023/03/19 06:46:41;;;;;;;7.57;4.68;;;;;;;;;;5066211;28;20039;-80
2023/03/19 06:49:07;;;;;;;6.68;4.70;;;;;;;;;;5063432;28;20028;-80
2023/03/19 06:51:32;;;;;;;7.80;5.13;;;;;;;;;;5065799;28;20429;-80
2023/03/19 06:53:57;;;;;;;8.40;4.93;;;;;;;;;;5064615;28;20055;-80
2023/03/19 06:56:23;;;;;;;8.85;5.80;;;;;;;;;;5062542;28;20028;-80
2023/03/19 06:58:48;;;;;;;8.27;6.03;;;;;;;;;;5068720;28;20115;-80
2023/03/19 07:01:13;;;;;;;9.25;6.05;;;;;;;;;;5053159;28;20033;-80
2023/03/19 07:03:39;;;;;;;10.05;6.40;;;;;;;;;;5044336;28;20048;-80
2023/03/19 07:06:06;;;;;;;8.45;6.22;;;;;;;;;;5048711;28;20507;-80
2023/03/19 07:08:31;;;;;;;9.68;6.55;;;;;;;;;;5068498;28;20016;-80
2023/03/19 07:11:02;;;;;;;10.27;6.50;;;;;;;;;;5065401;28;20085;-81
2023/03/19 07:13:28;;;;;;;9.50;5.93;;;;;;;;;;5052733;28;20028;-80
2023/03/19 07:15:53;;;;;;;9.32;5.78;;;;;;;;;;5070734;28;20024;-80
2023/03/19 07:18:19;;;;;;;10.23;6.03;;;;;;;;;;5063664;28;20465;-80
2023/03/19 07:20:44;;;;;;;7.22;5.03;;;;;;;;;;5066516;28;20388;-80
2023/03/19 07:23:10;;;;;;;8.02;5.30;;;;;;;;;;5047725;28;20496;-80
2023/03/19 07:25:35;;;;;;;7.18;5.00;;;;;;;;;;5067560;28;20055;-80
2023/03/19 07:28:01;;;;;;;7.78;4.82;;;;;;;;;;5049392;28;20454;-80
2023/03/19 07:30:26;;;;;;;7.43;4.82;;;;;;;;;;5063375;28;20116;-80
2023/03/19 07:32:51;;;;;;;8.90;5.15;;;;;;;;;;5052427;28;20392;-80
2023/03/19 07:35:17;;;;;;;7.60;4.60;;;;;;;;;;5044213;28;20028;-80
2023/03/19 07:37:42;;;;;;;7.22;4.68;;;;;;;;;;5065150;28;20028;-80
2023/03/19 07:40:09;;;;;;;8.10;5.00;;;;;;;;;;5069519;28;20048;-80
2023/03/19 07:42:35;;;;;;;9.10;4.88;;;;;;;;;;5049742;28;20036;-80
2023/03/19 07:45:02;;;;;;;8.40;5.05;;;;;;;;;;5071341;28;20103;-80
2023/03/19 07:47:28;;;;;;;8.75;4.82;;;;;;;;;;5069004;28;21360;-80
2023/03/19 07:49:53;;;;;;;7.72;4.78;;;;;;;;;;5053100;28;20028;-80
2023/03/19 07:52:19;;;;;;;6.68;4.03;;;;;;;;;;5042480;28;20029;-80
2023/03/19 07:54:44;;;;;;;5.95;3.60;;;;;;;;;;5070927;28;20016;-80
2023/03/19 07:57:10;;;;;;;7.32;4.60;;;;;;;;;;5071789;28;20039;-80
2023/03/19 07:59:35;;;;;;;8.05;4.55;;;;;;;;;;5070876;28;20024;-80
2023/03/19 08:02:01;;;;;;;7.18;3.80;;;;;;;;;;5069815;28;20037;-80
2023/03/19 08:04:26;;;;;;;8.43;5.20;;;;;;;;;;5076707;28;20024;-80
2023/03/19 08:06:52;;;;;;;9.13;5.25;;;;;;;;;;5081927;28;20021;-80
2023/03/19 08:09:17;;;;;;;11.63;5.90;;;;;;;;;;5077511;28;20021;-80
2023/03/19 08:11:43;;;;;;;9.52;5.28;;;;;;;;;;5065342;28;20054;-81
2023/03/19 08:14:08;;;;;;;9.60;5.00;;;;;;;;;;5064580;28;20039;-80
2023/03/19 08:16:33;;;;;;;10.02;5.70;;;;;;;;;;5075015;28;20032;-80
2023/03/19 08:18:59;;;;;;;10.35;6.00;;;;;;;;;;5070318;28;20084;-80
2023/03/19 08:21:24;;;;;;;10.68;6.10;;;;;;;;;;5056413;28;20032;-80
2023/03/19 08:23:49;;;;;;;9.13;5.90;;;;;;;;;;5077793;28;20097;-80
2023/03/19 08:26:15;;;;;;;10.00;6.05;;;;;;;;;;5073196;28;20029;-80
2023/03/19 08:28:40;;;;;;;10.45;6.18;;;;;;;;;;5065156;28;20020;-80
2023/03/19 08:31:10;;;;;;;11.93;6.05;;;;;;;;;;5062602;28;20047;-80
2023/03/19 08:33:35;;;;;;;9.80;5.93;;;;;;;;;;5079416;28;20078;-80
2023/03/19 08:36:07;;;;;;;10.48;6.00;;;;;;;;;;5075008;28;20029;-80
2023/03/19 08:38:32;;;;;;;10.02;6.30;;;;;;;;;;5072709;28;20162;-81
2023/03/19 08:41:01;;;;;;;12.55;6.93;;;;;;;;;;5071521;28;20048;-81
2023/03/19 08:43:27;;;;;;;11.52;6.97;;;;;;;;;;5066964;28;20049;-80
2023/03/19 08:45:52;;;;;;;12.70;7.28;;;;;;;;;;5054822;28;20017;-80
2023/03/19 08:48:17;;;;;;;12.07;7.25;;;;;;;;;;5075457;28;20047;-81
2023/03/19 08:50:43;;;;;;;12.18;6.70;;;;;;;;;;5070769;28;20024;-81
2023/03/19 08:53:08;;;;;;;11.55;7.32;;;;;;;;;;5069815;28;20384;-81
2023/03/19 08:55:33;;;;;;;11.50;7.30;;;;;;;;;;5066077;28;20139;-80
2023/03/19 08:57:59;;;;;;;9.15;6.47;;;;;;;;;;5057801;28;20028;-80
2023/03/19 09:00:24;;;;;;;14.30;7.85;;;;;;;;;;5070228;28;20033;-80
2023/03/19 09:02:50;;;;;;;9.68;7.18;;;;;;;;;;5056626;28;20116;-80
2023/03/19 09:05:15;;;;;;;13.10;7.68;;;;;;;;;;5069599;28;20383;-80
2023/03/19 09:07:41;;;;;;;14.65;9.52;;;;;;;;;;5057932;28;20039;-80
2023/03/19 09:10:07;;;;;;;14.32;8.63;;;;;;;;;;5075424;28;20028;-80
2023/03/19 09:12:32;;;;;;;12.48;8.63;;;;;;;;;;5071545;28;20111;-81
2023/03/19 09:14:57;;;;;;;15.00;9.73;;;;;;;;;;5072557;28;20032;-81
2023/03/19 09:17:23;;;;;;;13.80;9.52;;;;;;;;;;5078593;28;20024;-80
2023/03/19 09:19:48;;;;;;;19.48;10.95;;;;;;;;;;5074308;28;20040;-80
2023/03/19 09:22:13;;;;;;;14.60;9.98;;;;;;;;;;5061763;28;20153;-80
2023/03/19 09:24:39;;;;;;;13.90;9.70;;;;;;;;;;5073032;28;20507;-81
2023/03/19 09:27:05;;;;;;;14.48;10.73;;;;;;;;;;5077498;28;20077;-81
2023/03/19 09:29:30;;;;;;;20.23;12.13;;;;;;;;;;5055918;28;20020;-80
2023/03/19 09:31:56;;;;;;;18.40;11.63;;;;;;;;;;5071418;28;20035;-81
2023/03/19 09:34:21;;;;;;;17.23;12.60;;;;;;;;;;5072437;28;20042;-80
2023/03/19 09:36:46;;;;;;;18.63;13.32;;;;;;;;;;5072976;28;20032;-80
2023/03/19 09:39:12;;;;;;;18.27;13.45;;;;;;;;;;5066894;28;20098;-80
2023/03/19 09:42:02;;;;;;;22.65;14.20;;;;;;;;;;5058194;28;20032;-79
2023/03/19 09:44:42;;;;;;;25.48;14.77;;;;;;;;;;5061196;28;20388;-80
2023/03/19 09:47:25;;;;;;;22.52;14.98;;;;;;;;;;5065476;28;20037;-80
2023/03/19 09:49:53;;;;;;;19.33;14.30;;;;;;;;;;5060015;28;20024;-80
2023/03/19 09:52:41;;;;;;;20.50;14.02;;;;;;;;;;5079772;28;20028;-80
2023/03/19 09:55:44;;;;;;;21.42;14.60;;;;;;;;;;5082304;28;20056;-80
2023/03/19 09:58:14;;;;;;;19.70;13.65;;;;;;;;;;5059242;28;20063;-79
2023/03/19 10:00:41;;;;;;;20.15;14.07;;;;;;;;;;5075871;28;20029;-80
2023/03/19 10:03:19;;;;;;;21.67;14.65;;;;;;;;;;5074933;28;20037;-80
2023/03/19 10:06:11;;;;;;;21.70;14.82;;;;;;;;;;5061252;28;20119;-81
2023/03/19 10:08:48;;;;;;;23.80;13.45;;;;;;;;;;5058792;28;20020;-79
2023/03/19 10:11:29;;;;;;;19.10;13.70;;;;;;;;;;5062202;28;20093;-80
2023/03/19 10:14:38;;;;;;;22.35;13.82;;;;;;;;;;5078733;28;20051;-80
2023/03/19 10:17:11;;;;;;;17.02;12.10;;;;;;;;;;5078488;28;20055;-80
2023/03/19 10:19:44;;;;;;;18.52;12.93;;;;;;;;;;5074854;28;20074;-80
2023/03/19 10:22:22;;;;;;;19.17;12.88;;;;;;;;;;5077712;28;20032;-80
2023/03/19 10:24:49;;;;;;;18.83;12.35;;;;;;;;;;5065094;28;20068;-79
2023/03/19 10:27:18;;;;;;;19.58;13.00;;;;;;;;;;5075780;28;20028;-80
2023/03/19 10:29:44;;;;;;;20.15;12.93;;;;;;;;;;5060194;28;20028;-80
2023/03/19 10:32:39;;;;;;;16.88;11.45;;;;;;;;;;5082890;28;20036;-80
2023/03/19 10:35:18;;;;;;;15.93;11.23;;;;;;;;;;5058048;28;20024;-81
2023/03/19 10:37:43;;;;;;;15.95;11.63;;;;;;;;;;5051860;28;20025;-81
2023/03/19 10:40:20;;;;;;;18.00;12.07;;;;;;;;;;5069276;28;20037;-80
2023/03/19 10:43:15;;;;;;;17.77;11.82;;;;;;;;;;5078581;28;20032;-81
2023/03/19 10:45:41;;;;;;;17.35;11.13;;;;;;;;;;5056304;28;20032;-81
2023/03/19 10:48:16;;;;;;;16.35;11.63;;;;;;;;;;5067909;28;20035;-81
2023/03/19 10:50:54;;;;;;;19.73;12.02;;;;;;;;;;5062387;28;20055;-81
2023/03/19 10:53:33;;;;;;;18.58;11.07;;;;;;;;;;5057462;28;20029;-81
2023/03/19 10:56:05;;;;;;;15.32;10.88;;;;;;;;;;5050613;28;20029;-81
2023/03/19 10:58:34;;;;;;;17.75;11.85;;;;;;;;;;5053470;28;20500;-82
2023/03/19 11:01:06;;;;;;;18.30;10.52;;;;;;;;;;5052794;28;20033;-81
2023/03/19 11:03:49;;;;;;;19.15;10.70;;;;;;;;;;5056373;28;20033;-81
2023/03/19 11:06:23;;;;;;;18.33;10.50;;;;;;;;;;5074624;28;20063;-81
2023/03/19 11:08:52;;;;;;;16.98;9.85;;;;;;;;;;5056597;28;20028;-81
2023/03/19 11:11:41;;;;;;;16.85;9.45;;;;;;;;;;5072943;28;20043;-81
2023/03/19 11:14:13;;;;;;;15.07;9.55;;;;;;;;;;5056498;28;20024;-81
2023/03/19 11:16:56;;;;;;;13.02;8.15;;;;;;;;;;5074271;28;20111;-81
2023/03/19 11:19:25;;;;;;;16.73;9.30;;;;;;;;;;5071192;28;20035;-81
2023/03/19 11:22:16;;;;;;;14.40;8.50;;;;;;;;;;5062306;28;20044;-81
2023/03/19 11:24:51;;;;;;;19.63;10.23;;;;;;;;;;5068601;28;20547;-81
2023/03/19 11:27:17;;;;;;;14.27;9.60;;;;;;;;;;5067846;28;20024;-81
2023/03/19 11:29:44;;;;;;;14.75;9.75;;;;;;;;;;5055158;28;20029;-81
2023/03/19 11:32:30;;;;;;;15.05;9.68;;;;;;;;;;5047766;28;20375;-81
2023/03/19 11:35:00;;;;;;;16.35;9.85;;;;;;;;;;5065324;28;20040;-81
2023/03/19 11:37:45;;;;;;;20.10;11.00;;;;;;;;;;5046922;28;20491;-81
2023/03/19 11:40:33;;;;;;;20.92;11.48;;;;;;;;;;5067627;28;20033;-81
2023/03/19 11:43:23;;;;;;;20.92;11.10;;;;;;;;;;5073992;28;20020;-81
2023/03/19 11:46:04;;;;;;;20.52;11.25;;;;;;;;;;5077691;28;20052;-81
2023/03/19 11:48:44;;;;;;;22.98;12.10;;;;;;;;;;5086615;28;20025;-81
2023/03/19 11:51:25;;;;;;;29.33;14.07;;;;;;;;;;5086538;28;20012;-81
2023/03/19 11:54:13;;;;;;;23.08;13.02;;;;;;;;;;5070524;28;20023;-81
2023/03/19 11:57:08;;;;;;;22.75;11.93;;;;;;;;;;5078884;28;20036;-81
2023/03/19 11:59:42;;;;;;;22.50;13.60;;;;;;;;;;5063083;28;20034;-81
2023/03/19 12:02:29;;;;;;;26.10;12.95;;;;;;;;;;5071427;28;20041;-81
2023/03/19 12:05:16;;;;;;;22.42;12.93;;;;;;;;;;5056898;28;21533;-81
2023/03/19 12:08:06;;;;;;;25.25;13.65;;;;;;;;;;5072507;28;20032;-81
2023/03/19 12:10:49;;;;;;;20.33;13.45;;;;;;;;;;5058274;28;20068;-81
2023/03/19 12:13:24;;;;;;;18.75;12.90;;;;;;;;;;5059187;28;20028;-81
2023/03/19 12:16:02;;;;;;;19.73;11.65;;;;;;;;;;5063751;28;20094;-81
2023/03/19 12:19:07;;;;;;;23.27;13.52;;;;;;;;;;5066579;28;20025;-81
2023/03/19 12:21:53;;;;;;;18.95;11.50;;;;;;;;;;5068188;28;20044;-81
2023/03/19 12:24:42;;;;;;;16.88;11.30;;;;;;;;;;5078577;28;20465;-82
2023/03/19 12:27:26;;;;;;;21.38;11.85;;;;;;;;;;5046305;28;20032;-81
2023/03/19 12:30:31;;;;;;;19.15;11.48;;;;;;;;;;5068150;28;20051;-81
2023/03/19 12:33:08;;;;;;;20.08;10.60;;;;;;;;;;5065867;28;20042;-82
2023/03/19 12:35:37;;;;;;;19.38;11.27;;;;;;;;;;5067409;28;20103;-82
2023/03/19 12:38:22;;;;;;;20.30;11.48;;;;;;;;;;5069995;28;20067;-82
2023/03/19 12:40:55;;;;;;;16.80;11.15;;;;;;;;;;5067033;28;20028;-82
2023/03/19 12:43:50;;;;;;;21.77;11.45;;;;;;;;;;5085478;28;20059;-82
2023/03/19 12:46:24;;;;;;;18.20;10.80;;;;;;;;;;5049900;28;20040;-82
2023/03/19 12:48:54;;;;;;;15.52;10.77;;;;;;;;;;5087884;28;20066;-82
2023/03/19 12:51:25;;;;;;;16.85;9.93;;;;;;;;;;5071129;28;20043;-82
2023/03/19 12:54:00;;;;;;;15.10;10.25;;;;;;;;;;5066864;28;20031;-82
2023/03/19 12:56:48;;;;;;;17.58;10.27;;;;;;;;;;5082763;28;20036;-82
2023/03/19 12:59:29;;;;;;;16.98;10.38;;;;;;;;;;5084423;28;20028;-82
2023/03/19 13:02:11;;;;;;;19.55;10.63;;;;;;;;;;5081978;28;20064;-82
2023/03/19 13:04:52;;;;;;;14.63;8.82;;;;;;;;;;5070755;28;20032;-82
2023/03/19 13:07:33;;;;;;;18.05;9.90;;;;;;;;;;5084147;28;20043;-82
2023/03/19 13:10:15;;;;;;;12.90;9.27;;;;;;;;;;5061276;28;20029;-82
2023/03/19 13:12:41;;;;;;;15.25;9.07;;;;;;;;;;5081936;28;20025;-82
2023/03/19 13:15:15;;;;;;;17.95;9.68;;;;;;;;;;5079765;28;20101;-82
2023/03/19 13:18:02;;;;;;;14.27;9.02;;;;;;;;;;5066610;28;20032;-82
2023/03/19 13:20:51;;;;;;;14.73;9.02;;;;;;;;;;5068317;28;20036;-82
2023/03/19 13:23:24;;;;;;;14.73;8.88;;;;;;;;;;5065791;28;20024;-82
2023/03/19 13:25:53;;;;;;;15.88;9.15;;;;;;;;;;5067153;28;20024;-82
2023/03/19 13:28:28;;;;;;;15.20;8.73;;;;;;;;;;5087053;28;20036;-82
2023/03/19 13:30:59;;;;;;;15.13;8.23;;;;;;;;;;5089893;28;20016;-82
2023/03/19 13:33:25;;;;;;;15.63;8.85;;;;;;;;;;5083818;28;20024;-82
2023/03/19 13:35:51;;;;;;;15.13;8.00;;;;;;;;;;5081867;28;20033;-82
2023/03/19 13:38:43;;;;;;;13.45;8.60;;;;;;;;;;5081719;28;20086;-82
2023/03/19 13:41:38;;;;;;;15.77;8.80;;;;;;;;;;5073999;28;20075;-82
2023/03/19 13:44:39;;;;;;;14.18;8.52;;;;;;;;;;5031392;28;20033;-82
2023/03/19 13:47:35;;;;;;;18.67;8.55;;;;;;;;;;5074342;28;20019;-82
2023/03/19 13:50:14;;;;;;;14.55;8.38;;;;;;;;;;5066566;28;20029;-82
2023/03/19 13:52:43;;;;;;;15.23;8.27;;;;;;;;;;5093514;28;20035;-82
2023/03/19 13:55:24;;;;;;;15.38;8.75;;;;;;;;;;5073783;28;20040;-82
2023/03/19 14:01:31;;;;;;;16.73;9.23;;;;;;;;;;5084385;28;20055;-82
2023/03/19 14:04:00;;;;;;;14.10;8.50;;;;;;;;;;5083339;28;20020;-82
2023/03/19 14:06:37;;;;;;;14.30;8.32;;;;;;;;;;5090073;28;20048;-82
2023/03/19 14:09:04;;;;;;;17.85;8.48;;;;;;;;;;5075124;28;20142;-82
2023/03/19 14:11:35;;;;;;;14.48;8.88;;;;;;;;;;5083656;28;20012;-82
2023/03/19 14:14:12;;;;;;;15.25;9.57;;;;;;;;;;5081976;28;20030;-82
2023/03/19 14:16:42;;;;;;;15.73;8.57;;;;;;;;;;5074611;28;20081;-82
2023/03/19 14:19:16;;;;;;;15.93;8.98;;;;;;;;;;5066668;28;20016;-82
2023/03/19 14:22:01;;;;;;;17.73;9.77;;;;;;;;;;5086967;28;20080;-82
2023/03/19 14:24:42;;;;;;;16.33;9.07;;;;;;;;;;5069707;28;20519;-82
2023/03/19 14:27:39;;;;;;;16.65;9.85;;;;;;;;;;5082773;28;20080;-82
2023/03/19 14:30:17;;;;;;;17.88;9.50;;;;;;;;;;5036726;28;20056;-81
2023/03/19 14:32:46;;;;;;;17.65;9.57;;;;;;;;;;5055068;28;20449;-82
2023/03/19 14:35:19;;;;;;;16.70;9.65;;;;;;;;;;5051468;28;20032;-82
2023/03/19 14:37:50;;;;;;;16.42;9.40;;;;;;;;;;5067368;28;20024;-80
2023/03/19 14:40:24;;;;;;;16.30;9.32;;;;;;;;;;5067520;28;20032;-80
2023/03/19 14:43:23;;;;;;;15.93;9.63;;;;;;;;;;5059032;28;20076;-80
2023/03/19 14:45:57;;;;;;;23.50;9.32;;;;;;;;;;5040696;28;20024;-81
2023/03/19 14:48:41;;;;;;;16.65;9.02;;;;;;;;;;5062683;28;20523;-81
2023/03/19 14:51:17;;;;;;;15.85;9.73;;;;;;;;;;5062125;28;20032;-82
2023/03/19 14:53:47;;;;;;;16.05;8.75;;;;;;;;;;5061047;28;20051;-81
2023/03/19 14:56:25;;;;;;;15.77;8.93;;;;;;;;;;5063282;28;20035;-80